createdAt,value
2019-05-29T00:00:16.204Z,9.55
2019-05-29T00:02:49.122Z,8.38
2019-05-29T00:05:22.007Z,6.95
2019-05-29T00:07:54.843Z,6.50
2019-05-29T00:10:27.804Z,11.78
2019-05-29T00:13:00.737Z,11.43
2019-05-29T00:15:33.672Z,11.22
2019-05-29T00:18:06.835Z,10.20
2019-05-29T00:20:39.746Z,12.50
2019-05-29T00:23:13.176Z,11.53
2019-05-29T00:25:46.053Z,10.63
2019-05-29T00:28:18.916Z,11.08
2019-05-29T00:30:51.774Z,6.33
2019-05-29T00:33:24.609Z,12.68
2019-05-29T00:35:57.526Z,6.50
2019-05-29T00:38:30.395Z,5.30
2019-05-29T00:41:03.272Z,7.60
2019-05-29T00:43:36.145Z,7.65
2019-05-29T00:46:09.319Z,6.00
2019-05-29T00:48:42.197Z,7.67
2019-05-29T00:51:15.158Z,8.48
2019-05-29T00:53:47.971Z,8.13
2019-05-29T00:56:20.789Z,11.43
2019-05-29T00:58:53.600Z,10.35
2019-05-29T01:01:26.421Z,7.53
2019-05-29T01:03:59.394Z,9.95
2019-05-29T01:06:32.140Z,6.45
2019-05-29T01:09:06.189Z,5.55
2019-05-29T01:11:39.006Z,7.37
2019-05-29T01:14:13.007Z,5.58
2019-05-29T01:16:46.024Z,8.95
2019-05-29T01:19:25.436Z,5.70
2019-05-29T01:21:58.744Z,6.83
2019-05-29T01:24:31.533Z,7.00
2019-05-29T01:27:04.509Z,6.50
2019-05-29T01:29:37.294Z,7.90
2019-05-29T01:32:10.164Z,9.23
2019-05-29T01:34:43.011Z,7.33
2019-05-29T01:37:16.130Z,6.50
2019-05-29T01:39:50.094Z,8.08
2019-05-29T01:42:24.350Z,9.03
2019-05-29T01:45:07.122Z,10.58
2019-05-29T01:47:31.688Z,6.97
2019-05-29T01:50:04.479Z,7.85
2019-05-29T01:52:37.376Z,5.58
2019-05-29T01:55:10.635Z,5.53
2019-05-29T01:57:43.490Z,5.90
2019-05-29T02:00:17.789Z,6.78
2019-05-29T02:02:51.375Z,5.15
2019-05-29T02:05:24.237Z,8.15
2019-05-29T02:07:57.123Z,9.23
2019-05-29T02:10:29.979Z,8.13
2019-05-29T02:13:02.780Z,4.17
2019-05-29T02:15:35.761Z,7.65
2019-05-29T02:18:08.631Z,9.75
2019-05-29T02:20:44.551Z,7.47
2019-05-29T02:23:17.783Z,5.40
2019-05-29T02:25:50.540Z,5.70
2019-05-29T02:28:24.580Z,4.78
2019-05-29T02:30:57.474Z,8.05
2019-05-29T02:33:30.220Z,4.62
2019-05-29T02:36:03.077Z,5.90
2019-05-29T02:38:35.850Z,5.17
2019-05-29T02:41:08.733Z,7.70
2019-05-29T02:43:41.519Z,10.30
2019-05-29T02:46:14.281Z,7.70
2019-05-29T02:48:47.127Z,5.05
2019-05-29T02:51:19.895Z,7.35
2019-05-29T02:53:52.708Z,7.22
2019-05-29T02:56:26.906Z,6.85
2019-05-29T02:58:59.974Z,4.47
2019-05-29T03:01:32.948Z,5.90
2019-05-29T03:04:05.745Z,8.65
2019-05-29T03:06:38.935Z,9.55
2019-05-29T03:09:11.690Z,6.08
2019-05-29T03:11:44.963Z,7.53
2019-05-29T03:14:17.804Z,14.63
2019-05-29T03:16:50.647Z,10.63
2019-05-29T03:19:23.891Z,6.25
2019-05-29T03:21:56.770Z,9.05
2019-05-29T03:24:30.836Z,10.72
2019-05-29T03:27:04.152Z,8.93
2019-05-29T03:29:38.491Z,5.12
2019-05-29T03:32:14.057Z,9.30
2019-05-29T03:34:47.610Z,8.55
2019-05-29T03:37:20.992Z,4.75
2019-05-29T03:39:54.053Z,9.95
2019-05-29T03:42:28.295Z,5.50
2019-05-29T03:45:01.379Z,8.33
2019-05-29T03:47:35.061Z,9.25
2019-05-29T03:50:08.443Z,5.28
2019-05-29T03:52:41.221Z,7.80
2019-05-29T03:55:13.996Z,7.67
2019-05-29T03:57:46.875Z,6.83
2019-05-29T04:00:19.840Z,7.10
2019-05-29T04:02:52.739Z,5.87
2019-05-29T04:05:26.845Z,6.40
2019-05-29T04:07:59.796Z,8.45
2019-05-29T04:10:35.520Z,11.35
2019-05-29T04:13:07.658Z,7.03
2019-05-29T04:15:42.147Z,9.03
2019-05-29T04:18:19.242Z,7.03
2019-05-29T04:20:50.674Z,9.48
2019-05-29T04:23:25.484Z,7.92
2019-05-29T04:25:59.455Z,7.45
2019-05-29T04:28:34.743Z,3.50
2019-05-29T04:31:08.059Z,10.48
2019-05-29T04:33:40.871Z,6.97
2019-05-29T04:36:13.705Z,12.03
2019-05-29T04:38:46.480Z,7.58
2019-05-29T04:41:19.265Z,9.63
2019-05-29T04:43:52.089Z,5.03
2019-05-29T04:46:24.896Z,5.72
2019-05-29T04:48:57.921Z,4.60
2019-05-29T04:51:31.232Z,6.97
2019-05-29T04:54:04.207Z,5.40
2019-05-29T04:56:37.063Z,8.53
2019-05-29T04:59:10.009Z,7.10
2019-05-29T05:01:42.812Z,5.12
2019-05-29T05:04:15.662Z,6.00
2019-05-29T05:06:48.514Z,10.10
2019-05-29T05:09:21.349Z,5.95
2019-05-29T05:11:54.918Z,7.37
2019-05-29T05:14:27.746Z,10.03
2019-05-29T05:17:00.636Z,7.03
2019-05-29T05:19:33.940Z,5.37
2019-05-29T05:22:08.417Z,9.35
2019-05-29T05:24:43.950Z,7.53
2019-05-29T05:27:15.829Z,6.05
2019-05-29T05:29:48.698Z,13.70
2019-05-29T05:32:21.524Z,4.80
2019-05-29T05:34:54.642Z,8.03
2019-05-29T05:37:27.411Z,7.03
2019-05-29T05:40:00.296Z,5.42
2019-05-29T05:42:33.061Z,4.60
2019-05-29T05:45:06.194Z,5.72
2019-05-29T05:47:50.435Z,8.50
2019-05-29T05:50:14.377Z,9.03
2019-05-29T05:52:47.151Z,4.50
2019-05-29T05:55:20.182Z,7.83
2019-05-29T05:57:53.031Z,8.73
2019-05-29T06:00:35.837Z,8.10
2019-05-29T06:03:09.342Z,8.85
2019-05-29T06:05:42.349Z,8.38
2019-05-29T06:08:15.293Z,11.65
2019-05-29T06:10:51.106Z,5.22
2019-05-29T06:13:23.690Z,7.55
2019-05-29T06:15:56.704Z,8.75
2019-05-29T06:18:29.528Z,9.18
2019-05-29T06:21:02.722Z,5.20
2019-05-29T06:23:36.897Z,5.25
2019-05-29T06:26:09.978Z,6.30
2019-05-29T06:28:43.479Z,6.00
2019-05-29T06:31:16.493Z,4.97
2019-05-29T06:33:49.250Z,4.50
2019-05-29T06:36:22.194Z,7.10
2019-05-29T06:38:55.134Z,11.57
2019-05-29T06:41:28.279Z,5.87
2019-05-29T06:44:01.217Z,6.70
2019-05-29T06:46:34.398Z,8.30
2019-05-29T06:49:07.190Z,6.47
2019-05-29T06:51:41.253Z,5.42
2019-05-29T06:54:14.304Z,8.65
2019-05-29T06:56:48.013Z,7.03
2019-05-29T06:59:20.913Z,4.40
2019-05-29T07:01:53.770Z,15.95
2019-05-29T07:04:26.722Z,6.12
2019-05-29T07:06:59.607Z,6.72
2019-05-29T07:09:32.418Z,9.58
2019-05-29T07:12:05.287Z,4.70
2019-05-29T07:14:38.210Z,3.45
2019-05-29T07:17:11.064Z,2.27
2019-05-29T07:19:57.466Z,6.87
2019-05-29T07:22:18.569Z,5.30
2019-05-29T07:24:51.334Z,4.90
2019-05-29T07:27:24.157Z,5.03
2019-05-29T07:29:57.054Z,5.60
2019-05-29T07:32:29.954Z,6.20
2019-05-29T07:35:04.101Z,9.45
2019-05-29T07:37:39.542Z,6.03
2019-05-29T07:40:14.138Z,6.00
2019-05-29T07:42:55.076Z,5.58
2019-05-29T07:45:23.152Z,7.10
2019-05-29T07:47:56.477Z,5.55
2019-05-29T07:50:29.351Z,6.47
2019-05-29T07:53:02.247Z,6.70
2019-05-29T07:55:35.063Z,7.20
2019-05-29T07:58:07.964Z,4.25
2019-05-29T08:01:03.765Z,7.28
2019-05-29T08:03:15.504Z,3.15
2019-05-29T08:05:51.536Z,9.25
2019-05-29T08:08:22.829Z,6.83
2019-05-29T08:10:56.788Z,5.60
2019-05-29T08:13:29.597Z,5.12
2019-05-29T08:16:03.418Z,3.60
2019-05-29T08:18:36.583Z,4.42
2019-05-29T08:21:09.460Z,4.20
2019-05-29T08:23:42.351Z,6.03
2019-05-29T08:26:15.100Z,2.42
2019-05-29T08:28:48.947Z,4.58
2019-05-29T08:31:21.835Z,5.37
2019-05-29T08:33:54.598Z,8.23
2019-05-29T08:36:27.474Z,4.30
2019-05-29T08:39:00.247Z,3.92
2019-05-29T08:41:33.202Z,3.77
2019-05-29T08:44:06.060Z,11.12
2019-05-29T08:46:38.958Z,3.98
2019-05-29T08:49:11.837Z,3.37
2019-05-29T08:51:46.023Z,5.28
2019-05-29T08:54:23.809Z,7.58
2019-05-29T08:56:53.355Z,5.33
2019-05-29T08:59:26.099Z,4.45
2019-05-29T09:01:58.891Z,6.95
2019-05-29T09:04:32.064Z,8.58
2019-05-29T09:07:04.983Z,3.67
2019-05-29T09:09:37.848Z,6.12
2019-05-29T09:12:11.393Z,7.85
2019-05-29T09:14:44.174Z,5.75
2019-05-29T09:17:18.400Z,4.53
2019-05-29T09:19:51.345Z,3.25
2019-05-29T09:22:25.269Z,2.98
2019-05-29T09:24:58.073Z,3.65
2019-05-29T09:27:30.881Z,4.40
2019-05-29T09:30:06.220Z,3.25
2019-05-29T09:32:50.414Z,2.62
2019-05-29T09:35:16.072Z,6.30
2019-05-29T09:37:49.111Z,4.75
2019-05-29T09:40:23.073Z,4.83
2019-05-29T09:42:56.217Z,9.68
2019-05-29T09:45:33.392Z,6.53
2019-05-29T09:48:06.537Z,3.30
2019-05-29T09:50:50.024Z,3.67
2019-05-29T09:53:15.680Z,3.77
2019-05-29T09:55:48.669Z,5.75
2019-05-29T09:58:21.432Z,5.00
2019-05-29T10:01:16.200Z,8.70
2019-05-29T10:03:28.890Z,3.50
2019-05-29T10:06:01.661Z,2.85
2019-05-29T10:08:34.449Z,6.00
2019-05-29T10:11:15.569Z,6.62
2019-05-29T10:13:48.335Z,13.00
2019-05-29T10:16:21.217Z,5.20
2019-05-29T10:18:54.259Z,9.50
2019-05-29T10:21:39.191Z,4.67
2019-05-29T10:24:04.157Z,4.25
2019-05-29T10:26:37.399Z,3.72
2019-05-29T10:29:10.388Z,4.60
2019-05-29T10:31:46.828Z,8.10
2019-05-29T10:34:17.985Z,4.67
2019-05-29T10:36:53.570Z,3.30
2019-05-29T10:39:25.421Z,3.20
2019-05-29T10:41:58.268Z,5.30
2019-05-29T10:44:31.083Z,8.83
2019-05-29T10:47:03.914Z,3.77
2019-05-29T10:49:36.792Z,5.87
2019-05-29T10:52:16.162Z,4.62
2019-05-29T10:54:44.147Z,4.42
2019-05-29T10:57:17.165Z,4.08
2019-05-29T10:59:50.853Z,4.80
2019-05-29T11:02:23.752Z,4.20
2019-05-29T11:04:59.338Z,3.05
2019-05-29T11:07:31.654Z,7.78
2019-05-29T11:10:04.701Z,7.03
2019-05-29T11:12:39.504Z,7.62
2019-05-29T11:15:21.485Z,9.25
2019-05-29T11:17:47.147Z,3.52
2019-05-29T11:20:21.973Z,3.15
2019-05-29T11:22:55.670Z,4.12
2019-05-29T11:25:28.922Z,7.95
2019-05-29T11:28:01.730Z,6.00
2019-05-29T11:30:34.667Z,3.02
2019-05-29T11:33:07.496Z,2.83
2019-05-29T11:35:57.240Z,4.80
2019-05-29T11:38:15.085Z,6.70
2019-05-29T11:40:48.229Z,7.10
2019-05-29T11:43:21.492Z,4.42
2019-05-29T11:45:55.189Z,6.65
2019-05-29T11:48:28.177Z,4.28
2019-05-29T11:51:01.030Z,5.58
2019-05-29T11:53:33.826Z,4.85
2019-05-29T11:56:07.062Z,3.65
2019-05-29T11:58:39.965Z,3.25
2019-05-29T12:01:13.187Z,5.55
2019-05-29T12:04:09.015Z,6.80
2019-05-29T12:06:20.530Z,3.92
2019-05-29T12:08:53.686Z,6.72
2019-05-29T12:11:26.730Z,2.58
2019-05-29T12:14:00.489Z,3.60
2019-05-29T12:16:33.910Z,2.37
2019-05-29T12:19:07.825Z,8.23
2019-05-29T12:21:42.788Z,10.88
2019-05-29T12:24:15.272Z,5.60
2019-05-29T12:26:48.144Z,7.17
2019-05-29T12:29:20.953Z,11.43
2019-05-29T12:31:54.907Z,8.98
2019-05-29T12:34:27.903Z,5.72
2019-05-29T12:37:01.897Z,8.18
2019-05-29T12:39:34.953Z,4.78
2019-05-29T12:42:08.055Z,11.70
2019-05-29T12:44:40.868Z,4.40
2019-05-29T12:47:13.968Z,4.85
2019-05-29T12:49:46.842Z,5.47
2019-05-29T12:52:19.825Z,5.12
2019-05-29T12:54:53.950Z,6.22
2019-05-29T12:57:26.790Z,5.75
2019-05-29T13:00:00.317Z,5.20
2019-05-29T13:02:33.204Z,4.25
2019-05-29T13:05:16.049Z,6.53
2019-05-29T13:07:44.446Z,4.10
2019-05-29T13:10:30.241Z,3.30
2019-05-29T13:13:02.406Z,7.42
2019-05-29T13:15:29.447Z,5.47
2019-05-29T13:18:06.247Z,4.35
2019-05-29T13:20:36.880Z,6.65
2019-05-29T13:23:10.933Z,3.45
2019-05-29T13:25:43.870Z,7.10
2019-05-29T13:28:16.819Z,5.55
2019-05-29T13:30:49.600Z,7.12
2019-05-29T13:33:22.688Z,10.50
2019-05-29T13:35:56.246Z,5.47
2019-05-29T13:38:29.336Z,4.25
2019-05-29T13:41:04.620Z,6.60
2019-05-29T13:43:37.538Z,9.88
2019-05-29T13:46:10.450Z,10.68
2019-05-29T13:48:43.605Z,11.20
2019-05-29T13:51:16.504Z,6.15
2019-05-29T13:54:02.681Z,2.72
2019-05-29T13:56:24.440Z,9.43
2019-05-29T13:58:57.841Z,8.08
2019-05-29T14:01:31.018Z,4.78
2019-05-29T14:04:05.179Z,7.62
2019-05-29T14:06:38.567Z,7.30
2019-05-29T14:09:11.575Z,7.25
2019-05-29T14:11:44.557Z,6.10
2019-05-29T14:14:18.070Z,4.50
2019-05-29T14:16:51.130Z,2.00
2019-05-29T14:19:23.956Z,1.57
2019-05-29T14:21:57.119Z,2.50
2019-05-29T14:24:30.557Z,6.78
2019-05-29T14:27:03.652Z,5.28
2019-05-29T14:29:36.441Z,5.12
2019-05-29T14:32:09.412Z,7.05
2019-05-29T14:34:42.265Z,5.22
2019-05-29T14:37:15.117Z,6.42
2019-05-29T14:39:47.975Z,3.98
2019-05-29T14:42:20.777Z,3.83
2019-05-29T14:44:53.530Z,5.20
2019-05-29T14:47:26.499Z,6.20
2019-05-29T14:49:59.373Z,4.37
2019-05-29T14:52:32.306Z,5.28
2019-05-29T14:55:06.770Z,4.65
2019-05-29T14:57:39.649Z,2.95
2019-05-29T15:00:22.836Z,2.52
2019-05-29T15:02:48.933Z,1.80
2019-05-29T15:05:22.057Z,2.20
2019-05-29T15:07:54.917Z,9.10
2019-05-29T15:10:27.976Z,5.50
2019-05-29T15:13:00.876Z,4.72
2019-05-29T15:15:34.163Z,6.28
2019-05-29T15:18:07.128Z,3.47
2019-05-29T15:20:40.044Z,7.40
2019-05-29T15:23:13.528Z,4.75
2019-05-29T15:25:46.392Z,4.90
2019-05-29T15:28:19.294Z,3.47
2019-05-29T15:30:52.134Z,4.28
2019-05-29T15:33:25.324Z,9.73
2019-05-29T15:35:58.227Z,10.55
2019-05-29T15:38:31.060Z,5.28
2019-05-29T15:41:03.833Z,6.72
2019-05-29T15:43:36.887Z,5.17
2019-05-29T15:46:10.491Z,6.12
2019-05-29T15:48:44.280Z,3.10
2019-05-29T15:51:21.732Z,5.03
2019-05-29T15:53:53.529Z,4.55
2019-05-29T15:56:28.160Z,3.83
2019-05-29T15:59:01.435Z,4.67
2019-05-29T16:01:34.277Z,5.12
2019-05-29T16:04:09.510Z,2.77
2019-05-29T16:06:42.714Z,6.62
2019-05-29T16:09:16.339Z,4.53
2019-05-29T16:11:49.572Z,2.90
2019-05-29T16:14:25.364Z,3.47
2019-05-29T16:16:59.715Z,2.50
2019-05-29T16:19:32.807Z,3.00
2019-05-29T16:22:05.847Z,7.05
2019-05-29T16:24:39.390Z,4.55
2019-05-29T16:27:12.276Z,5.67
2019-05-29T16:29:45.157Z,5.75
2019-05-29T16:32:18.041Z,7.67
2019-05-29T16:34:50.891Z,4.90
2019-05-29T16:37:23.704Z,3.77
2019-05-29T16:39:56.745Z,4.70
2019-05-29T16:42:29.693Z,4.60
2019-05-29T16:45:04.142Z,5.10
2019-05-29T16:47:37.108Z,1.77
2019-05-29T16:50:14.984Z,4.83
2019-05-29T16:53:42.729Z,3.83
2019-05-29T16:56:26.058Z,5.97
2019-05-29T16:58:59.053Z,4.87
2019-05-29T17:01:37.880Z,2.08
2019-05-29T17:04:11.140Z,6.62
2019-05-29T17:06:44.159Z,3.37
2019-05-29T17:09:24.431Z,4.95
2019-05-29T17:11:58.035Z,8.08
2019-05-29T17:14:32.081Z,2.67
2019-05-29T17:17:05.057Z,4.03
2019-05-29T17:19:41.688Z,5.22
2019-05-29T17:22:14.899Z,5.00
2019-05-29T17:24:54.001Z,5.22
2019-05-29T17:27:27.411Z,3.00
2019-05-29T17:30:07.077Z,2.52
2019-05-29T17:32:48.457Z,4.55
2019-05-29T17:35:26.198Z,4.03
2019-05-29T17:38:12.650Z,3.95
2019-05-29T17:40:53.627Z,4.10
2019-05-29T17:43:45.246Z,6.55
2019-05-29T17:46:22.026Z,4.87
2019-05-29T17:49:30.343Z,3.12
2019-05-29T17:52:04.593Z,4.37
2019-05-29T17:55:36.727Z,3.60
2019-05-29T17:59:00.397Z,2.77
2019-05-29T18:01:20.216Z,3.72
2019-05-29T18:04:12.078Z,6.12
2019-05-29T18:06:48.659Z,9.50
2019-05-29T18:09:39.963Z,6.60
2019-05-29T18:12:17.120Z,2.77
2019-05-29T18:14:52.422Z,6.85
2019-05-29T18:17:58.437Z,6.25
2019-05-29T18:21:38.597Z,7.92
2019-05-29T18:24:24.201Z,11.03
2019-05-29T18:27:00.200Z,3.87
2019-05-29T18:29:42.024Z,3.37
2019-05-29T18:32:47.539Z,5.83
2019-05-29T18:35:45.036Z,4.53
2019-05-29T18:38:38.284Z,2.62
2019-05-29T18:41:24.406Z,6.22
2019-05-29T18:44:04.295Z,9.85
2019-05-29T18:50:15.764Z,17.42
2019-05-29T18:53:09.655Z,22.95
2019-05-29T18:55:37.936Z,19.37
2019-05-29T18:58:41.322Z,21.85
2019-05-29T19:01:31.734Z,20.62
2019-05-29T19:04:06.608Z,7.78
2019-05-29T19:07:04.122Z,7.40
2019-05-29T19:10:06.215Z,6.67
2019-05-29T19:13:01.682Z,4.33
2019-05-29T19:25:33.062Z,8.90
2019-05-29T19:28:06.552Z,7.58
2019-05-29T19:30:40.147Z,8.93
2019-05-29T19:33:13.435Z,6.17
2019-05-29T19:35:46.847Z,8.20
2019-05-29T19:38:19.898Z,10.93
2019-05-29T19:40:53.080Z,6.42
2019-05-29T19:43:26.440Z,15.13
2019-05-29T19:45:59.676Z,11.63
2019-05-29T19:48:33.458Z,11.00
2019-05-29T19:51:07.148Z,10.18
2019-05-29T19:53:40.523Z,14.53
2019-05-29T19:56:13.732Z,16.32
2019-05-29T19:58:47.177Z,19.60
2019-05-29T20:01:30.790Z,17.20
2019-05-29T20:03:56.030Z,11.57
2019-05-29T20:06:30.997Z,9.15
2019-05-29T20:09:07.266Z,12.55
2019-05-29T20:11:40.433Z,12.53
2019-05-29T20:14:13.576Z,7.42
2019-05-29T20:16:46.611Z,9.50
2019-05-29T20:19:19.749Z,10.60
2019-05-29T20:21:52.821Z,12.82
2019-05-29T20:24:26.768Z,9.38
2019-05-29T20:26:59.834Z,15.60
2019-05-29T20:29:38.560Z,9.43
2019-05-29T20:32:11.833Z,12.93
2019-05-29T20:34:44.806Z,7.72
2019-05-29T20:37:17.899Z,9.08
2019-05-29T20:39:50.955Z,9.13
2019-05-29T20:42:24.115Z,8.90
2019-05-29T20:44:57.016Z,5.95
2019-05-29T20:47:30.068Z,7.60
2019-05-29T20:50:03.693Z,5.95
2019-05-29T20:52:37.407Z,7.10
2019-05-29T20:55:10.734Z,4.67
2019-05-29T20:57:43.772Z,8.48
2019-05-29T21:00:18.844Z,11.90
2019-05-29T21:02:52.563Z,6.45
2019-05-29T21:05:25.500Z,4.05
2019-05-29T21:07:58.464Z,3.05
2019-05-29T21:10:32.995Z,8.25
2019-05-29T21:13:06.290Z,4.40
2019-05-29T21:15:39.786Z,6.25
2019-05-29T21:18:13.335Z,6.70
2019-05-29T21:20:46.435Z,8.28
2019-05-29T21:23:19.569Z,5.12
2019-05-29T21:25:58.252Z,8.78
2019-05-29T21:28:40.755Z,7.00
2019-05-29T21:31:06.914Z,5.78
2019-05-29T21:33:43.906Z,5.08
2019-05-29T21:36:14.560Z,8.83
2019-05-29T21:38:47.456Z,7.72
2019-05-29T21:41:20.331Z,4.78
2019-05-29T21:43:54.342Z,4.92
2019-05-29T21:46:27.461Z,4.65
2019-05-29T21:49:00.402Z,6.85
2019-05-29T21:51:33.415Z,5.78
2019-05-29T21:54:06.578Z,3.85
2019-05-29T21:56:39.523Z,5.47
2019-05-29T21:59:12.643Z,6.28
2019-05-29T22:01:46.295Z,4.15
2019-05-29T22:04:19.337Z,5.90
2019-05-29T22:06:52.437Z,7.65
2019-05-29T22:09:25.456Z,11.65
2019-05-29T22:11:58.600Z,13.58
2019-05-29T22:14:31.980Z,12.23
2019-05-29T22:17:06.051Z,12.05
2019-05-29T22:19:39.046Z,20.17
2019-05-29T22:22:12.081Z,24.20
2019-05-29T22:24:45.149Z,21.02
2019-05-29T22:27:18.017Z,12.90
2019-05-29T22:29:51.968Z,14.40
2019-05-29T22:32:25.499Z,9.53
2019-05-29T22:34:59.503Z,9.60
2019-05-29T22:37:32.881Z,8.53
2019-05-29T22:40:06.103Z,8.03
2019-05-29T22:42:38.985Z,11.45
2019-05-29T22:45:12.142Z,6.22
2019-05-29T22:47:45.340Z,6.72
2019-05-29T22:50:18.468Z,6.80
2019-05-29T22:52:51.752Z,9.93
2019-05-29T22:55:24.871Z,7.97
2019-05-29T22:57:58.018Z,11.48
2019-05-29T23:00:34.259Z,9.73
2019-05-29T23:03:07.284Z,10.98
2019-05-29T23:05:40.558Z,10.63
2019-05-29T23:08:13.647Z,13.62
2019-05-29T23:10:46.614Z,9.88
2019-05-29T23:13:19.756Z,10.28
2019-05-29T23:15:54.471Z,13.20
2019-05-29T23:18:27.655Z,13.13
2019-05-29T23:21:00.651Z,12.15
2019-05-29T23:23:34.061Z,11.57
2019-05-29T23:26:07.129Z,15.32
2019-05-29T23:28:40.154Z,12.33
2019-05-29T23:31:13.139Z,15.08
2019-05-29T23:33:46.216Z,12.98
2019-05-29T23:36:19.086Z,11.68
2019-05-29T23:38:53.124Z,13.13
2019-05-29T23:41:26.318Z,14.20
2019-05-29T23:43:59.532Z,13.65
2019-05-29T23:46:32.525Z,15.72
2019-05-29T23:49:05.417Z,15.10
2019-05-29T23:51:38.287Z,31.05
2019-05-29T23:54:12.134Z,30.48
2019-05-29T23:56:44.905Z,26.55
2019-05-29T23:59:17.816Z,31.37
